• Join FlightAware (Why Join?)
  • Login
  • US Flag 
11:45AM EST


 

Airport Tracker/Info


-or-


 

Live Flight TrackerFlight Track Log ✈ AFL150 ✈ 25-Feb-2014 ✈ UUEE / SVO - MUHA / HAV

Flight Track Log - Related Links

Times and Time Zones

All times are in EST time to prevent confusion due to time zone crossing. See the AFL150 flight status page for this flight to view local times or setup timezone preferences in your user account.

Time Position Orientation Groundspeed Altitude Reporting Facility
EST Latitude Longitude Course Direction KTS MPH feet Rate Location/Type
05:06AM 56.0700 37.0943 307° West  Level Estimated
05:07AM 56.1424 36.9187 307° West  Level Estimated
05:08AM 56.2145 36.7425 306° West  Level Estimated
05:09AM 56.2865 36.5656 306° West  Level Estimated
05:10AM 56.3581 36.3880 306° West  Level Estimated
05:11AM 56.4295 36.2098 306° West  Level Estimated
05:12AM 56.5007 36.0309 306° West  Level Estimated
05:13AM 56.5716 35.8513 306° West  Level Estimated
05:14AM 56.6422 35.6710 306° West  Level Estimated
05:15AM 56.7126 35.4901 305° West  Level Estimated
05:16AM 56.7827 35.3085 305° West  Level Estimated
05:17AM 56.8525 35.1262 305° West  Level Estimated
05:18AM 56.9221 34.9433 305° West  Level Estimated
05:19AM 56.9914 34.7596 305° West  Level Estimated
05:20AM 57.0605 34.5753 305° West  Level Estimated
05:21AM 57.1292 34.3903 304° West  Level Estimated
05:22AM 57.1977 34.2046 304° West  Level Estimated
05:23AM 57.2659 34.0182 304° West  Level Estimated
05:24AM 57.3339 33.8311 304° West  Level Estimated
05:25AM 57.4015 33.6434 304° West  Level Estimated
05:26AM 57.4689 33.4549 304° West  Level Estimated
05:27AM 57.5360 33.2657 304° West  Level Estimated
05:28AM 57.6028 33.0759 303° West  Level Estimated
05:29AM 57.6694 32.8853 303° West  Level Estimated
05:30AM 57.7356 32.6941 303° West  Level Estimated
05:30AM 56.4699 32.1436 303° West 484 557 36,000  Level FlightAware ADS-B (EVDA / DGP)
05:31AM 56.4926 31.8640 278° West 485 558 36,000  Level FlightAware ADS-B
05:32AM 56.5081 31.6701 278° West 485 558 36,000  Level FlightAware ADS-B (EVDA / DGP)
05:33AM 56.5269 31.4281 278° West 485 558 36,000  Level FlightAware ADS-B (EVDA / DGP)
05:34AM 56.5578 31.1914 283° West 489 563 36,000  Level FlightAware ADS-B (EVDA / DGP)
05:35AM 56.6148 30.9624 294° West 493 567 36,000  Level FlightAware ADS-B (EVDA / DGP)
05:36AM 56.6940 30.7618 306° West 494 568 36,000  Level FlightAware ADS-B (EVDA / DGP)
05:37AM 56.7729 30.5665 306° West 492 566 36,000  Level FlightAware ADS-B (EVDA / DGP)
05:38AM 56.8529 30.3576 305° West 492 566 36,000  Level FlightAware ADS-B (EVDA / DGP)
05:39AM 56.9282 30.1530 304° West 491 565 36,000  Level FlightAware ADS-B (EVDA / DGP)
05:40AM 57.0026 29.9489 304° West 490 564 36,000  Level FlightAware ADS-B (EVDA / DGP)
05:41AM 57.0787 29.7383 304° West 489 563 36,000  Level FlightAware ADS-B (EVDA / DGP)
05:42AM 57.1496 29.5403 304° West 490 564 36,000  Level FlightAware ADS-B (EVDA / DGP)
05:43AM 57.2274 29.3213 303° West 489 563 36,000  Level FlightAware ADS-B (EVDA / DGP)
05:44AM 57.3007 29.1135 303° West 489 563 36,000  Level FlightAware ADS-B (EVDA / DGP)
05:45AM 57.3706 28.9136 303° West 488 562 36,000  Level FlightAware ADS-B (EVDA / DGP)
05:46AM 57.4475 28.6917 303° West 486 559 36,000  Level FlightAware ADS-B (EVDA / DGP)
05:47AM 57.5190 28.4837 303° West 487 560 36,000  Level FlightAware ADS-B (EVDA / DGP)
05:48AM 57.5802 28.3039 302° West 486 559 36,000  Level FlightAware ADS-B (EVDA / DGP)
05:49AM 57.6590 28.0707 302° West 484 557 36,000  Level FlightAware ADS-B (EVDA / DGP)
05:50AM 57.7332 27.8493 302° West 483 556 36,000  Level FlightAware ADS-B (EVDA / DGP)
05:51AM 57.8016 27.6435 302° West 481 554 36,000  Level FlightAware ADS-B (EVDA / DGP)
05:52AM 57.8612 27.4152 296° West 476 548 36,000  Level FlightAware ADS-B (EVDA / DGP)
05:53AM 57.9077 27.1802 290° West 477 549 36,000  Level FlightAware ADS-B (EVDA / DGP)
05:54AM 57.9540 26.9486 291° West 476 548 36,000  Level FlightAware ADS-B (EVDA / DGP)
05:55AM 58.0001 26.7164 291° West 476 548 36,000  Level FlightAware ADS-B (EVDA / DGP)
05:56AM 58.0453 26.4864 290° West 475 547 36,000  Level FlightAware ADS-B (EVDA / DGP)
05:57AM 58.0903 26.2537 290° West 476 548 36,000  Level FlightAware ADS-B (EVDA / DGP)
05:58AM 58.1352 26.0187 290° West 475 547 36,000  Level FlightAware ADS-B (EVDA / DGP)
05:59AM 58.1799 25.7824 290° West 475 547 36,000  Level FlightAware ADS-B (EVDA / DGP)
06:00AM 58.2268 25.5309 290° West 475 547 36,000  Level FlightAware ADS-B (EVDA / DGP)
06:01AM 58.2810 25.2369 289° West 476 548 36,000  Level FlightAware ADS-B (EVDA / DGP)
06:02AM 58.3239 25.0003 289° West 477 549 36,000  Level FlightAware ADS-B (EVDA / DGP)
06:03AM 58.3654 24.7684 289° West 478 550 36,000  Level FlightAware ADS-B (EVDA / DGP)
06:04AM 58.4081 24.5274 289° West 478 550 36,000  Level FlightAware ADS-B (EVDA / DGP)
06:05AM 58.4415 24.3223 287° West 476 548 36,000  Level FlightAware ADS-B (EVDA / DGP)
06:06AM 58.4849 24.0286 286° West 476 548 36,000  Level FlightAware ADS-B
06:18AM 58.8872 21.2178 294° West 479 551 36,000  Level FlightAware ADS-B (ESKB)
06:18AM 58.9067 21.1010 288° West 478 550 36,000  Level FlightAware ADS-B (ESKB)
06:19AM 58.9507 20.8342 288° West 478 550 36,000  Level FlightAware ADS-B (ESKB)
06:20AM 58.9789 20.6605 288° West 479 551 36,000  Level FlightAware ADS-B (ESKB)
06:21AM 59.0099 20.4673 287° West 479 551 36,000  Level FlightAware ADS-B (ESKB)
06:21AM 59.0360 20.3035 287° West 477 549 36,000  Level FlightAware ADS-B (ESKB)
06:22AM 59.0617 20.1399 287° West 477 549 36,000  Level FlightAware ADS-B (ESKB)
06:23AM 59.0871 19.9770 287° West 475 547 36,000  Level FlightAware ADS-B (ESKB)
06:23AM 59.1124 19.8134 287° West 476 548 36,000  Level FlightAware ADS-B (ESKB)
06:24AM 59.1378 19.6474 287° West 476 548 36,000  Level FlightAware ADS-B (ESKB)
06:25AM 59.1649 19.4693 287° West 475 547 36,000  Level FlightAware ADS-B (ESKB)
06:25AM 59.1894 19.3061 286° West 475 547 36,000  Level FlightAware ADS-B (ESKB)
06:26AM 59.2137 19.1429 286° West 474 545 36,000  Level FlightAware ADS-B (ESKB)
06:27AM 59.2380 18.9771 286° West 472 543 36,000  Level FlightAware ADS-B (ESKB)
06:27AM 59.2619 18.8134 286° West 471 542 36,000  Level FlightAware ADS-B (ESKB)
06:28AM 59.2829 18.6681 286° West 471 542 36,000  Level FlightAware ADS-B (ESKB)
06:29AM 59.3074 18.4960 286° West 469 540 36,000  Level FlightAware ADS-B (ESKB)
06:29AM 59.3308 18.3306 286° West 470 541 36,000  Level FlightAware ADS-B (ESKB)
06:30AM 59.3543 18.1624 285° West 469 540 36,000  Level FlightAware ADS-B (ESKB)
06:31AM 59.3766 18.0011 285° West 469 540 36,000  Level FlightAware ADS-B (ESKB)
06:31AM 59.3993 17.8355 285° West 467 537 36,000  Level FlightAware ADS-B (ESKB)
06:32AM 59.4198 17.6842 285° West 466 536 36,000  Level FlightAware ADS-B (ESKB)
06:33AM 59.4438 17.5054 285° West 464 534 36,000  Level FlightAware ADS-B (ESKB)
06:33AM 59.4655 17.3414 285° West 464 534 36,000  Level FlightAware ADS-B (ESKB)
06:34AM 59.4858 17.1868 285° West 464 534 36,000  Level FlightAware ADS-B (ESKB)
06:35AM 59.5077 17.0184 284° West 463 533 36,000  Level FlightAware ADS-B (ESKB)
06:35AM 59.5286 16.8557 284° West 463 533 36,000  Level FlightAware ADS-B (ESKB)
06:36AM 59.5493 16.6928 284° West 461 531 36,000  Level FlightAware ADS-B (ESKB)
06:37AM 59.5691 16.5355 284° West 459 528 36,000  Level FlightAware ADS-B (ESKB)
06:37AM 59.5898 16.3688 284° West 459 528 36,000  Level FlightAware ADS-B (ESKB)
06:38AM 59.6097 16.2070 284° West 458 527 36,000  Level FlightAware ADS-B (ESKB)
06:39AM 59.6288 16.0499 284° West 458 527 36,000  Level FlightAware ADS-B (ESKB)
06:39AM 59.6476 15.8936 283° West 456 525 36,000  Level FlightAware ADS-B (ESKB)
06:40AM 59.6661 15.7383 283° West 456 525 36,000  Level FlightAware ADS-B (ESKB)
06:42AM 59.7257 15.3876 289° West  Level Estimated
06:43AM 59.7641 15.1582 288° West  Level Estimated
06:44AM 59.8021 14.9283 288° West  Level Estimated
06:45AM 59.8397 14.6979 288° West  Level Estimated
06:46AM 59.8769 14.4670 288° West  Level Estimated
06:47AM 59.9137 14.2355 288° West  Level Estimated
06:48AM 59.9500 14.0035 287° West  Level Estimated
06:49AM 59.9860 13.7711 287° West  Level Estimated
06:50AM 60.0216 13.5381 287° West  Level Estimated
06:51AM 60.0567 13.3046 287° West  Level Estimated
06:52AM 60.0914 13.0706 287° West  Level Estimated
06:53AM 60.1258 12.8362 286° West  Level Estimated
06:54AM 60.1597 12.6012 286° West  Level Estimated
06:55AM 60.1932 12.3658 286° West  Level Estimated
06:56AM 60.2262 12.1299 286° West  Level Estimated
06:57AM 60.2589 11.8935 286° West  Level Estimated
06:58AM 60.2911 11.6566 285° West  Level Estimated
06:59AM 60.3229 11.4193 285° West  Level Estimated
07:00AM 60.3543 11.1816 285° West  Level Estimated
07:01AM 60.3853 10.9433 285° West  Level Estimated
07:02AM 60.4158 10.7047 285° West  Level Estimated
07:03AM 60.4459 10.4655 284° West  Level Estimated
07:04AM 60.4756 10.2260 284° West  Level Estimated
07:05AM 60.5048 9.9860 284° West  Level Estimated
07:06AM 60.5337 9.7455 284° West  Level Estimated
07:07AM 60.5620 9.5047 284° West  Level Estimated
07:08AM 60.5900 9.2634 283° West  Level Estimated
07:09AM 60.6175 9.0217 283° West  Level Estimated
07:10AM 60.6446 8.7796 283° West  Level Estimated
07:11AM 60.6712 8.5371 283° West  Level Estimated
07:12AM 60.6974 8.2942 283° West  Level Estimated
07:13AM 60.7232 8.0509 282° West  Level Estimated
07:14AM 60.7485 7.8072 282° West  Level Estimated
07:15AM 60.7734 7.5632 282° West  Level Estimated
07:16AM 60.7978 7.3187 282° West  Level Estimated
07:17AM 60.8218 7.0739 281° West  Level Estimated
07:18AM 60.8453 6.8287 281° West  Level Estimated
07:19AM 60.8684 6.5832 281° West  Level Estimated
07:20AM 60.8911 6.3373 281° West  Level Estimated
07:21AM 60.9133 6.0911 281° West  Level Estimated
07:22AM 60.9350 5.8445 280° West  Level Estimated
07:23AM 60.9563 5.5976 280° West  Level Estimated
07:24AM 60.9772 5.3504 280° West  Level Estimated
07:25AM 60.9976 5.1028 280° West  Level Estimated
07:26AM 61.0175 4.8550 280° West  Level Estimated
07:27AM 61.0370 4.6068 279° West  Level Estimated
07:28AM 61.0560 4.3583 279° West  Level Estimated
07:29AM 61.0746 4.1096 279° West  Level Estimated
07:30AM 61.0927 3.8605 279° West  Level Estimated
07:31AM 61.1104 3.6112 278° West  Level Estimated
07:32AM 61.1275 3.3615 278° West  Level Estimated
07:33AM 61.1443 3.1117 278° West  Level Estimated
07:34AM 61.1605 2.8615 278° West  Level Estimated
07:35AM 61.1763 2.6111 278° West  Level Estimated
07:36AM 61.1917 2.3605 277° West  Level Estimated
07:37AM 61.2066 2.1096 277° West  Level Estimated
07:38AM 61.2210 1.8585 277° West  Level Estimated
07:39AM 61.2350 1.6071 277° West  Level Estimated
07:40AM 61.2484 1.3555 276° West  Level Estimated
07:41AM 61.2615 1.1038 276° West  Level Estimated
07:42AM 61.2740 0.8518 276° West  Level Estimated
07:43AM 61.2861 0.5996 276° West  Level Estimated
07:44AM 61.2977 0.3472 276° West  Level Estimated
07:45AM 61.3089 0.0947 275° West  Level Estimated
07:46AM 61.3196 -0.1581 275° West  Level Estimated
07:47AM 61.3298 -0.4110 275° West  Level Estimated
07:48AM 61.3395 -0.6640 275° West  Level Estimated
07:49AM 61.3488 -0.9172 274° West  Level Estimated
07:50AM 61.3576 -1.1706 274° West  Level Estimated
07:51AM 61.3659 -1.4241 274° West  Level Estimated
07:52AM 61.3738 -1.6777 274° West  Level Estimated
07:53AM 61.3811 -1.9315 274° West  Level Estimated
07:54AM 61.3881 -2.1853 273° West  Level Estimated
07:55AM 61.3945 -2.4393 273° West  Level Estimated
07:56AM 61.4005 -2.6934 273° West  Level Estimated
07:57AM 61.4060 -2.9476 273° West  Level Estimated
07:58AM 61.4110 -3.2018 272° West  Level Estimated
07:59AM 61.4155 -3.4562 272° West  Level Estimated
08:00AM 61.4196 -3.7106 272° West  Level Estimated
08:01AM 61.4232 -3.9650 272° West  Level Estimated
08:02AM 61.4263 -4.2196 272° West  Level Estimated
08:03AM 61.4289 -4.4741 271° West  Level Estimated
08:04AM 61.4311 -4.7288 271° West  Level Estimated
08:05AM 61.4328 -4.9834 271° West  Level Estimated
08:06AM 61.4340 -5.2381 271° West  Level Estimated
08:07AM 61.4348 -5.4927 270° West  Level Estimated
08:08AM 61.4350 -5.7474 270° West  Level Estimated
08:09AM 61.4348 -6.0021 270° West  Level Estimated
08:10AM 61.4341 -6.2568 270° West  Level Estimated
08:11AM 61.4330 -6.5115 270° West  Level Estimated
08:12AM 61.4314 -6.7661 269° West  Level Estimated
08:13AM 61.4292 -7.0207 269° West  Level Estimated
08:14AM 61.4267 -7.2753 269° West  Level Estimated
08:15AM 61.4236 -7.5298 269° West  Level Estimated
08:16AM 61.4201 -7.7843 268° West  Level Estimated
08:17AM 61.4161 -8.0387 268° West  Level Estimated
08:18AM 61.4116 -8.2931 268° West  Level Estimated
08:19AM 61.4066 -8.5474 268° West  Level Estimated
08:20AM 61.4012 -8.8015 268° West  Level Estimated
08:21AM 61.3953 -9.0556 267° West  Level Estimated
08:22AM 61.3889 -9.3096 267° West  Level Estimated
08:23AM 61.3820 -9.5635 267° West  Level Estimated
08:24AM 61.3747 -9.8173 267° West  Level Estimated
08:25AM 61.3669 -10.0709 266° West  Level Estimated
08:26AM 61.3587 -10.3244 266° West  Level Estimated
08:27AM 61.3499 -10.5778 266° West  Level Estimated
08:28AM 61.3407 -10.8310 266° West  Level Estimated
08:29AM 61.3310 -11.0841 266° West  Level Estimated
08:30AM 61.3209 -11.3371 265° West  Level Estimated
08:31AM 61.3103 -11.5898 265° West  Level Estimated
08:32AM 61.2992 -11.8424 265° West  Level Estimated
08:33AM 61.2876 -12.0948 265° West  Level Estimated
08:34AM 61.2756 -12.3470 264° West  Level Estimated
08:35AM 61.2631 -12.5990 264° West  Level Estimated
08:36AM 61.2501 -12.8508 264° West  Level Estimated
08:37AM 61.2367 -13.1024 264° West  Level Estimated
08:38AM 61.2228 -13.3538 264° West  Level Estimated
08:39AM 61.2084 -13.6049 263° West  Level Estimated
08:40AM 61.1936 -13.8559 263° West  Level Estimated
08:41AM 61.1783 -14.1065 263° West  Level Estimated
08:42AM 61.1626 -14.3570 263° West  Level Estimated
08:43AM 61.1464 -14.6071 262° West  Level Estimated
08:44AM 61.1297 -14.8571 262° West  Level Estimated
08:45AM 61.1126 -15.1067 262° West  Level Estimated
08:46AM 61.0950 -15.3561 262° West  Level Estimated
08:47AM 61.0769 -15.6052 262° West  Level Estimated
08:48AM 61.0584 -15.8540 261° West  Level Estimated
08:49AM 61.0394 -16.1025 261° West  Level Estimated
08:50AM 61.0200 -16.3507 261° West  Level Estimated
08:51AM 61.0001 -16.5986 261° West  Level Estimated
08:52AM 60.9798 -16.8462 260° West  Level Estimated
08:53AM 60.9590 -17.0935 260° West  Level Estimated
08:54AM 60.9378 -17.3404 260° West  Level Estimated
08:55AM 60.9161 -17.5870 260° West  Level Estimated
08:56AM 60.8940 -17.8333 260° West  Level Estimated
08:57AM 60.8714 -18.0792 259° West  Level Estimated
08:58AM 60.8483 -18.3248 259° West  Level Estimated
08:59AM 60.8248 -18.5700 259° West  Level Estimated
09:00AM 60.8009 -18.8149 259° West  Level Estimated
09:01AM 60.7765 -19.0594 259° West  Level Estimated
09:02AM 60.7517 -19.3035 258° West  Level Estimated
09:03AM 60.7264 -19.5472 258° West  Level Estimated
09:04AM 60.7007 -19.7906 258° West  Level Estimated
09:05AM 60.6746 -20.0335 258° West  Level Estimated
09:06AM 60.6480 -20.2761 257° West  Level Estimated
09:07AM 60.6210 -20.5182 257° West  Level Estimated
09:08AM 60.5935 -20.7600 257° West  Level Estimated
09:09AM 60.5657 -21.0013 257° West  Level Estimated
09:10AM 60.5373 -21.2422 257° West  Level Estimated
09:11AM 60.5086 -21.4827 256° West  Level Estimated
09:12AM 60.4794 -21.7227 256° West  Level Estimated
09:13AM 60.4497 -21.9624 256° West  Level Estimated
09:14AM 60.4197 -22.2015 256° West  Level Estimated
09:15AM 60.3892 -22.4403 256° West  Level Estimated
09:16AM 60.3583 -22.6786 255° West  Level Estimated
09:17AM 60.3270 -22.9164 255° West  Level Estimated
09:18AM 60.2952 -23.1538 255° West  Level Estimated
09:19AM 60.2630 -23.3907 255° West  Level Estimated
09:20AM 60.2304 -23.6271 255° West  Level Estimated
09:21AM 60.1974 -23.8631 254° West  Level Estimated
09:22AM 60.1640 -24.0986 254° West  Level Estimated
09:23AM 60.1301 -24.3336 254° West  Level Estimated
09:24AM 60.0959 -24.5681 254° West  Level Estimated
09:25AM 60.0612 -24.8021 254° West  Level Estimated
09:26AM 60.0261 -25.0357 253° West  Level Estimated
09:27AM 59.9906 -25.2687 253° West  Level Estimated
09:28AM 59.9547 -25.5013 253° West  Level Estimated
09:29AM 59.9183 -25.7333 253° West  Level Estimated
09:30AM 59.8816 -25.9648 253° West  Level Estimated
09:31AM 59.8445 -26.1958 252° West  Level Estimated
09:32AM 59.8069 -26.4263 252° West  Level Estimated
09:33AM 59.7690 -26.6563 252° West  Level Estimated
09:34AM 59.7306 -26.8857 252° West  Level Estimated
09:35AM 59.6919 -27.1146 252° West  Level Estimated
09:36AM 59.6527 -27.3430 251° West  Level Estimated
09:37AM 59.6132 -27.5709 251° West  Level Estimated
09:38AM 59.5733 -27.7982 251° West  Level Estimated
09:39AM 59.5330 -28.0249 251° West  Level Estimated
09:40AM 59.4922 -28.2512 251° West  Level Estimated
09:41AM 59.4511 -28.4768 250° West  Level Estimated
09:42AM 59.4097 -28.7020 250° West  Level Estimated
09:43AM 59.3678 -28.9265 250° West  Level Estimated
09:44AM 59.3255 -29.1506 250° West  Level Estimated
09:45AM 59.2829 -29.3740 250° West  Level Estimated
09:46AM 59.2398 -29.5969 249° West  Level Estimated
09:47AM 59.1964 -29.8193 249° West  Level Estimated
09:48AM 59.1526 -30.0410 249° West  Level Estimated
09:49AM 59.1085 -30.2622 249° West  Level Estimated
09:50AM 59.0639 -30.4828 249° West  Level Estimated
09:51AM 59.0190 -30.7029 248° West  Level Estimated
09:52AM 58.9737 -30.9223 248° West  Level Estimated
09:53AM 58.9281 -31.1412 248° West  Level Estimated
09:54AM 58.8821 -31.3595 248° West  Level Estimated
09:55AM 58.8357 -31.5773 248° West  Level Estimated
09:56AM 58.7889 -31.7944 248° West  Level Estimated
09:57AM 58.7418 -32.0110 247° West  Level Estimated
09:58AM 58.6943 -32.2270 247° West  Level Estimated
09:59AM 58.6465 -32.4423 247° West  Level Estimated
10:00AM 58.5983 -32.6571 247° West  Level Estimated
10:01AM 58.5497 -32.8713 247° West  Level Estimated
10:02AM 58.5008 -33.0849 246° West  Level Estimated
10:03AM 58.4515 -33.2979 246° West  Level Estimated
10:04AM 58.4019 -33.5103 246° West  Level Estimated
10:05AM 58.3519 -33.7221 246° West  Level Estimated
10:06AM 58.3016 -33.9334 246° West  Level Estimated
10:07AM 58.2509 -34.1440 246° West  Level Estimated
10:08AM 58.1999 -34.3540 245° Southwest  Level Estimated
10:09AM 58.1486 -34.5634 245° Southwest  Level Estimated
10:10AM 58.0969 -34.7722 245° Southwest  Level Estimated
10:11AM 58.0448 -34.9804 245° Southwest  Level Estimated
10:12AM 57.9925 -35.1879 245° Southwest  Level Estimated
10:13AM 57.9398 -35.3949 244° Southwest  Level Estimated
10:14AM 57.8867 -35.6013 244° Southwest  Level Estimated
10:15AM 57.8333 -35.8070 244° Southwest  Level Estimated
10:16AM 57.7796 -36.0121 244° Southwest  Level Estimated
10:17AM 57.7256 -36.2167 244° Southwest  Level Estimated
10:18AM 57.6712 -36.4206 244° Southwest  Level Estimated
10:19AM 57.6165 -36.6239 243° Southwest  Level Estimated
10:20AM 57.5615 -36.8266 243° Southwest  Level Estimated
10:21AM 57.5061 -37.0287 243° Southwest  Level Estimated
10:22AM 57.4504 -37.2301 243° Southwest  Level Estimated
10:23AM 57.3944 -37.4310 243° Southwest  Level Estimated
10:24AM 57.3381 -37.6312 243° Southwest  Level Estimated
10:25AM 57.2815 -37.8309 242° Southwest  Level Estimated
10:26AM 57.2246 -38.0299 242° Southwest  Level Estimated
10:27AM 57.1673 -38.2283 242° Southwest  Level Estimated
10:28AM 57.1097 -38.4260 242° Southwest  Level Estimated
10:29AM 57.0518 -38.6232 242° Southwest  Level Estimated
10:30AM 56.9937 -38.8198 242° Southwest  Level Estimated
10:31AM 56.9352 -39.0157 241° Southwest  Level Estimated
10:32AM 56.8764 -39.2110 241° Southwest  Level Estimated
10:33AM 56.8173 -39.4057 241° Southwest  Level Estimated
10:34AM 56.7579 -39.5998 241° Southwest  Level Estimated
10:35AM 56.6981 -39.7933 241° Southwest  Level Estimated
10:36AM 56.6381 -39.9861 241° Southwest  Level Estimated
10:37AM 56.5778 -40.1784 240° Southwest  Level Estimated
10:38AM 56.5172 -40.3700 240° Southwest  Level Estimated
10:39AM 56.4563 -40.5610 240° Southwest  Level Estimated
10:40AM 56.3952 -40.7514 240° Southwest  Level Estimated
10:41AM 56.3337 -40.9412 240° Southwest  Level Estimated
10:42AM 56.2719 -41.1304 240° Southwest  Level Estimated
10:43AM 56.2099 -41.3190 239° Southwest  Level Estimated
10:44AM 56.1475 -41.5069 239° Southwest  Level Estimated
10:45AM 56.0849 -41.6943 239° Southwest  Level Estimated
10:46AM 56.0220 -41.8810 239° Southwest  Level Estimated
10:47AM 55.9588 -42.0671 239° Southwest  Level Estimated
10:48AM 55.8953 -42.2527 239° Southwest  Level Estimated
10:49AM 55.8316 -42.4376 239° Southwest  Level Estimated
10:50AM 55.7676 -42.6219 238° Southwest  Level Estimated
10:51AM 55.7033 -42.8056 238° Southwest  Level Estimated
10:52AM 55.6387 -42.9887 238° Southwest  Level Estimated
10:53AM 55.5739 -43.1712 238° Southwest  Level Estimated
10:54AM 55.5088 -43.3531 238° Southwest  Level Estimated
10:55AM 55.4434 -43.5343 238° Southwest  Level Estimated
10:56AM 55.3777 -43.7150 237° Southwest  Level Estimated
10:57AM 55.3118 -43.8951 237° Southwest  Level Estimated
10:58AM 55.2457 -44.0746 237° Southwest  Level Estimated
10:59AM 55.1792 -44.2535 237° Southwest  Level Estimated
11:00AM 55.1125 -44.4318 237° Southwest  Level Estimated
11:01AM 55.0456 -44.6095 237° Southwest  Level Estimated
11:01AM 63.1333 -55.0167 236° Southwest 370 426 36,000  Level Gander Center
11:02AM 54.9783 -44.7866 237° Southwest  Level Estimated
11:02AM 63.0833 -55.2500 245° Southwest 450 518 36,000  Level Gander Center
11:03AM 54.9109 -44.9631 236° Southwest  Level Estimated
11:03AM 63.0333 -55.5000 246° West 450 518 36,000  Level Gander Center
11:04AM 54.8431 -45.1390 236° Southwest  Level Estimated
11:04AM 62.9833 -55.7333 245° Southwest 450 518 36,000  Level Gander Center
11:05AM 54.7752 -45.3144 236° Southwest  Level Estimated
11:05AM 62.9333 -56.0000 248° West 450 518 36,000  Level Gander Center
11:06AM 54.7069 -45.4891 236° Southwest  Level Estimated
11:06AM 62.8833 -56.2333 245° Southwest 450 518 36,000  Level Gander Center
11:07AM 62.8333 -56.5000 248° West 450 518 36,000  Level Gander Center
11:08AM 62.7667 -56.7167 236° Southwest 450 518 36,000  Level Gander Center
11:09AM 62.7333 -56.9833 255° West 450 518 36,000  Level Gander Center
11:10AM 62.6667 -57.2333 240° Southwest 450 518 36,000  Level Gander Center
11:11AM 62.6167 -57.4667 245° Southwest 450 518 36,000  Level Gander Center
11:12AM 62.5833 -57.6000 242° Southwest 450 518 36,000  Level Montreal Center
11:13AM 62.5000 -57.8333 232° Southwest 450 518 36,000  Level Montreal Center
11:14AM 62.4500 -58.0833 247° West 450 518 36,000  Level Montreal Center
11:15AM 62.4167 -58.3000 252° West 440 506 36,000  Level Montreal Center
11:16AM 62.3500 -58.5500 240° Southwest 440 506 36,000  Level Montreal Center
11:17AM 62.3000 -58.7833 245° Southwest 440 506 36,000  Level Montreal Center
11:18AM 62.2333 -59.0000 237° Southwest 440 506 36,000  Level Montreal Center
11:19AM 62.1667 -59.2167 237° Southwest 440 506 36,000  Level Montreal Center
11:20AM 62.0833 -59.4167 228° Southwest 440 506 36,000  Level Montreal Center
11:21AM 62.0000 -59.6333 231° Southwest 440 506 36,000  Level Montreal Center
11:22AM 61.9167 -59.8167 226° Southwest 440 506 36,000  Level Montreal Center
11:23AM 61.8667 -60.0333 244° Southwest 440 506 36,000  Level Montreal Center
11:24AM 61.7833 -60.2167 226° Southwest 430 495 36,000  Level Montreal Center
11:25AM 61.7167 -60.4000 233° Southwest 430 495 36,000  Level Montreal Center
11:26AM 61.6167 -60.6333 228° Southwest 440 506 36,000  Level Montreal Center
11:27AM 61.5500 -60.8000 230° Southwest 440 506 36,000  Level Montreal Center
11:28AM 61.4667 -61.0167 231° Southwest 440 506 36,000  Level Montreal Center
11:29AM 61.4000 -61.2333 237° Southwest 440 506 36,000  Level Montreal Center
11:30AM 61.3167 -61.4167 227° Southwest 450 518 36,000  Level Montreal Center
11:31AM 61.2333 -61.7000 239° Southwest 450 518 36,000  Level Gander Center
11:32AM 61.1667 -61.8000 216° Southwest 440 506 36,000  Level Montreal Center
11:33AM 61.0833 -62.0167 232° Southwest 440 506 36,000  Level Montreal Center
11:34AM 61.0000 -62.2167 229° Southwest 440 506 36,000  Level Montreal Center
11:35AM 60.9167 -62.4000 227° Southwest 440 506 36,000  Level Montreal Center
11:36AM 60.8333 -62.6000 230° Southwest 440 506 36,000  Level Montreal Center
11:37AM 60.7500 -62.8167 232° Southwest 450 518 36,000  Level Montreal Center
11:38AM 60.6833 -62.9833 231° Southwest 440 506 36,000  Level Montreal Center
11:39AM 60.6000 -63.1833 230° Southwest 440 506 36,000  Level Montreal Center
11:40AM 60.5167 -63.4000 232° Southwest 440 506 36,000  Level Montreal Center
11:41AM 60.4333 -63.6000 230° Southwest 440 506 36,000  Level Montreal Center
11:42AM 60.3500 -63.7667 225° Southwest 440 506 36,000  Level Montreal Center
11:43AM 60.2667 -63.9333 225° Southwest 440 506 36,000  Level Montreal Center
11:44AM 60.2000 -64.1333 236° Southwest 440 506 36,000  Level Montreal Center
11:45AM 60.1000 -64.3000 220° Southwest 440 506 36,000  Level Montreal Center
11:46AM 60.0167 -64.5000 230° Southwest 440 506 36,000  Level Montreal Center
11:47AM 59.9500 -64.6500 228° Southwest 440 506 36,000  Level Montreal Center
11:48AM 59.8667 -64.8500 230° Southwest 440 506 36,000  Level Montreal Center
11:49AM 59.7833 -65.0500 230° Southwest 440 506 36,000  Level Montreal Center
11:50AM 59.6833 -65.2167 220° Southwest 440 506 36,000  Level Montreal Center
11:51AM 59.6167 -65.3667 229° Southwest 440 506 36,000  Level Montreal Center
11:52AM 59.5333 -65.5667 231° Southwest 440 506 36,000  Level Montreal Center
11:53AM 59.4500 -65.7500 228° Southwest 440 506 36,000  Level Montreal Center
11:54AM 59.3500 -65.9167 220° Southwest 440 506 36,000  Level Montreal Center
11:55AM 59.2667 -66.1000 228° Southwest 440 506 36,000  Level Montreal Center
11:56AM 59.2000 -66.2667 232° Southwest 440 506 36,000  Level Montreal Center
11:57AM 59.1000 -66.4500 223° Southwest 440 506 36,000  Level Montreal Center
11:58AM 59.0167 -66.6000 223° Southwest 440 506 36,000  Level Montreal Center
11:59AM 58.9500 -66.7833 235° Southwest 440 506 36,000  Level Montreal Center
12:00PM 58.8500 -66.9500 221° Southwest 440 506 36,000  Level Montreal Center
12:01PM 58.7667 -67.1333 229° Southwest 440 506 36,000  Level Montreal Center
12:02PM 58.6833 -67.3500 234° Southwest 440 506 36,000  Level Gander Center
12:03PM 58.6000 -67.4667 216° Southwest 440 506 36,000  Level Montreal Center
12:04PM 58.5000 -67.6167 218° Southwest 440 506 36,000  Level Montreal Center
12:05PM 58.4000 -67.8667 233° Southwest 440 506 36,000  Level Gander Center
12:06PM 58.3500 -67.9333 215° Southwest 430 495 36,000  Level Montreal Center
12:07PM 58.2500 -68.1167 224° Southwest 450 518 36,000  Level Montreal Center
12:08PM 58.1667 -68.3000 229° Southwest 460 529 36,000  Level Montreal Center
12:10PM 58.0167 -68.5167 217° Southwest 460 529 36,000  Level Montreal Center
12:11PM 57.9167 -68.6333 212° Southwest 440 506 36,000  Level Montreal Center
12:12PM 57.8167 -68.7833 219° Southwest 440 506 36,000  Level Montreal Center
12:13PM 57.7167 -68.9333 219° Southwest 440 506 36,000  Level Montreal Center
12:14PM 57.6167 -69.0500 212° Southwest 440 506 36,000  Level Montreal Center
12:15PM 57.5167 -69.1833 216° Southwest 440 506 36,000  Level Montreal Center
12:16PM 57.4333 -69.3333 224° Southwest 430 495 36,000  Level Montreal Center
12:17PM 57.3333 -69.4500 212° Southwest 430 495 36,000  Level Montreal Center
12:18PM 57.2333 -69.5833 216° Southwest 430 495 36,000  Level Montreal Center
12:19PM 57.1167 -69.7000 209° Southwest 430 495 36,000  Level Montreal Center
12:20PM 57.0333 -69.8333 221° Southwest 430 495 36,000  Level Montreal Center
12:21PM 56.9167 -69.9833 215° Southwest 430 495 36,000  Level Montreal Center
12:22PM 56.8167 -70.1167 216° Southwest 430 495 36,000  Level Montreal Center
12:23PM 56.7333 -70.2167 213° Southwest 430 495 36,000  Level Montreal Center
12:24PM 56.6333 -70.3667 220° Southwest 430 495 36,000  Level Montreal Center
12:25PM 56.5333 -70.4667 209° Southwest 430 495 36,000  Level Montreal Center
12:26PM 56.4333 -70.6000 216° Southwest 430 495 36,000  Level Montreal Center
12:27PM 56.3333 -70.7000 209° Southwest 430 495 36,000  Level Montreal Center
12:28PM 56.2333 -70.8500 220° Southwest 430 495 36,000  Level Montreal Center
12:29PM 56.1167 -70.9833 213° Southwest 430 495 36,000  Level Montreal Center
12:30PM 56.0167 -71.0833 209° Southwest 430 495 36,000  Level Montreal Center
12:31PM 55.9333 -71.2167 222° Southwest 430 495 36,000  Level Montreal Center
12:32PM 55.8333 -71.3167 209° Southwest 440 506 36,000  Level Montreal Center
12:33PM 55.7333 -71.4500 214° Southwest 430 495 36,000  Level Montreal Center
12:34PM 55.6746 -71.5075 214° Southwest  Level FlightAware Approximate
12:34PM 55.6333 -71.5500 209° Southwest 430 495 36,000  Level Montreal Center
12:35PM 55.5167 -71.6833 213° Southwest 430 495 36,000  Level Montreal Center
12:36PM 55.4167 -71.7833 210° Southwest 430 495 36,000  Level Montreal Center
12:37PM 55.3333 -71.9000 219° Southwest 430 495 36,000  Level Montreal Center
12:38PM 55.2333 -72.0333 217° Southwest 430 495 36,000  Level Montreal Center
12:39PM 55.1333 -72.1333 210° Southwest 430 495 36,000  Level Montreal Center
12:40PM 55.0167 -72.2667 213° Southwest 430 495 36,000  Level Montreal Center
12:41PM 54.9167 -72.3667 210° Southwest 430 495 36,000  Level Montreal Center
12:42PM 54.8000 -72.4500 202° Southwest 430 495 36,000  Level Montreal Center
12:43PM 54.7000 -72.5500 210° Southwest 430 495 36,000  Level Montreal Center
12:44PM 54.5833 -72.6500 206° Southwest 440 506 36,000  Level Montreal Center
12:45PM 54.5000 -72.7500 215° Southwest 430 495 36,000  Level Montreal Center
12:46PM 54.3833 -72.8333 203° Southwest 440 506 36,000  Level Montreal Center
12:47PM 54.2833 -72.9333 210° Southwest 430 495 36,000  Level Montreal Center
12:48PM 54.1667 -73.0333 207° Southwest 430 495 36,000  Level Montreal Center
12:49PM 54.0667 -73.1167 206° Southwest 430 495 36,000  Level Montreal Center
12:50PM 53.9500 -73.2167 207° Southwest 430 495 36,000  Level Montreal Center
12:51PM 53.8500 -73.3167 211° Southwest 440 506 36,000  Level Montreal Center
12:52PM 53.7167 -73.4333 207° Southwest 440 506 36,000  Level Montreal Center
12:53PM 53.6167 -73.5167 206° Southwest 440 506 36,000  Level Montreal Center
12:54PM 53.5000 -73.6167 207° Southwest 440 506 36,000  Level Montreal Center
12:55PM 53.4000 -73.7000 206° Southwest 440 506 36,000  Level Montreal Center
12:56PM 53.2833 -73.8000 207° Southwest 440 506 36,000  Level Montreal Center
12:57PM 53.1667 -73.8833 203° Southwest 440 506 36,000  Level Montreal Center
12:58PM 53.0667 -73.9667 207° Southwest 440 506 36,000  Level Montreal Center
12:59PM 52.9500 -74.0667 207° Southwest 440 506 36,000  Level Montreal Center
01:00PM 52.8333 -74.1500 203° Southwest 440 506 36,000  Level Montreal Center
01:01PM 52.7333 -74.2333 207° Southwest 440 506 36,000  Level Montreal Center
01:02PM 52.6167 -74.3333 208° Southwest 440 506 36,000  Level Montreal Center
01:03PM 52.5000 -74.4500 211° Southwest 450 518 36,000  Level Montreal Center
01:04PM 52.4000 -74.5333 207° Southwest 440 506 36,000  Level Montreal Center
01:05PM 52.2833 -74.6167 204° Southwest 440 506 36,000  Level Montreal Center
01:06PM 52.1667 -74.7000 204° Southwest 430 495 36,000  Level Montreal Center
01:07PM 52.0667 -74.7833 207° Southwest 430 495 36,000  Level Montreal Center
01:08PM 51.9500 -74.8667 204° Southwest 450 518 36,000  Level Montreal Center
01:09PM 51.8333 -74.9500 204° Southwest 440 506 36,000  Level Montreal Center
01:10PM 51.7333 -75.0333 207° Southwest 440 506 36,000  Level Montreal Center
01:11PM 51.6167 -75.1167 204° Southwest 440 506 36,000  Level Montreal Center
01:12PM 51.5000 -75.2333 212° Southwest 440 506 36,000  Level Montreal Center
01:13PM 51.4000 -75.3167 207° Southwest 440 506 36,000  Level Montreal Center
01:14PM 51.2833 -75.4000 204° Southwest 440 506 36,000  Level Montreal Center
01:15PM 51.1833 -75.4833 208° Southwest 440 506 36,000  Level Montreal Center
01:16PM 51.0667 -75.5667 204° Southwest 440 506 36,000  Level Montreal Center
01:17PM 50.9500 -75.6500 204° Southwest 440 506 36,000  Level Montreal Center
01:18PM 50.8500 -75.7333 208° Southwest 440 506 36,000  Level Montreal Center
01:19PM 50.7333 -75.8000 200° South 450 518 36,000  Level Montreal Center
01:20PM 50.6000 -75.9167 209° Southwest 450 518 36,000  Level Montreal Center
01:21PM 50.5000 -76.0000 208° Southwest 450 518 36,000  Level Montreal Center
01:22PM 50.4000 -76.0667 203° Southwest 450 518 36,000  Level Montreal Center
01:23PM 50.2667 -76.1500 202° Southwest 450 518 36,000  Level Montreal Center
01:24PM 50.1667 -76.2333 208° Southwest 450 518 36,000  Level Montreal Center
01:25PM 50.0500 -76.3000 200° South 450 518 36,000  Level Montreal Center
01:26PM 49.9167 -76.3833 202° Southwest 450 518 36,000  Level Montreal Center
01:27PM 49.8000 -76.4667 205° Southwest 450 518 36,000  Level Montreal Center
01:28PM 49.7000 -76.5667 213° Southwest 450 518 36,000  Level Montreal Center
01:29PM 49.5833 -76.6333 200° South 440 506 36,000  Level Montreal Center
01:30PM 49.4667 -76.7167 205° Southwest 460 529 36,000  Level Montreal Center
01:31PM 49.3500 -76.8000 205° Southwest 460 529 36,000  Level Montreal Center
01:32PM 49.2500 -76.8667 204° Southwest 440 506 36,000  Level Montreal Center
01:33PM 49.1333 -76.9500 205° Southwest 460 529 36,000  Level Montreal Center
01:34PM 49.0167 -77.0500 209° Southwest 460 529 36,000  Level Montreal Center
01:35PM 48.9000 -77.1167 201° Southwest 460 529 36,000  Level Montreal Center
01:36PM 48.7667 -77.1833 198° South 460 529 36,000  Level Montreal Center
01:37PM 48.6500 -77.2667 205° Southwest 450 518 36,000  Level Montreal Center
01:38PM 48.5333 -77.3667 210° Southwest 460 529 36,000  Level Montreal Center
01:39PM 48.4167 -77.4333 201° Southwest 450 518 36,000  Level Montreal Center
01:40PM 48.3167 -77.5000 204° Southwest 460 529 36,000  Level Montreal Center
01:41PM 48.1833 -77.5833 203° Southwest 460 529 36,000  Level Montreal Center
01:42PM 48.0833 -77.6500 204° Southwest 460 529 36,000  Level Montreal Center
01:43PM 47.9667 -77.7167 201° Southwest 460 529 36,000  Level Montreal Center
01:44PM 47.8500 -77.8167 210° Southwest 460 529 36,000  Level Montreal Center
01:45PM 47.7167 -77.8833 199° South 460 529 36,000  Level Montreal Center
01:46PM 47.6000 -77.9667 206° Southwest 460 529 36,000  Level Montreal Center
01:47PM 47.4833 -78.0333 201° Southwest 460 529 36,000  Level Montreal Center
01:48PM 47.3667 -78.1167 206° Southwest 460 529 36,000  Level Montreal Center
01:49PM 47.2500 -78.2000 206° Southwest 460 529 36,000  Level Montreal Center
01:50PM 47.1333 -78.2667 201° Southwest 460 529 36,000  Level Montreal Center
01:51PM 47.0167 -78.3333 201° Southwest 460 529 36,000  Level Montreal Center
01:57PM 46.2933 -78.7857 201° Southwest 466 536 36,000  Level FlightAware ADS-B (CYYZ)
01:58PM 46.2350 -78.8211 203° Southwest 466 536 36,000  Level FlightAware ADS-B (CYYZ)
01:58PM 46.1779 -78.8557 203° Southwest 466 536 36,000  Level FlightAware ADS-B (CYYZ)
01:59PM 46.1146 -78.8941 203° Southwest 466 536 36,000  Level FlightAware ADS-B (CYYZ)
01:59PM 46.0551 -78.9300 203° Southwest 465 535 36,000  Level FlightAware ADS-B (CYYZ)
02:00PM 45.9986 -78.9640 203° Southwest 463 533 36,000  Level FlightAware ADS-B (CYOW)
02:00PM 45.9970 -78.9651 203° Southwest 464 534 36,000  Level FlightAware ADS-B (CYYZ)
02:00PM 45.9393 -78.9997 203° Southwest 464 534 36,000  Level FlightAware ADS-B (CYYZ)
02:01PM 45.8838 -79.0330 203° Southwest 463 533 36,000  Level FlightAware ADS-B (CYYZ)
02:01PM 45.8195 -79.0713 203° Southwest 462 532 36,000  Level FlightAware ADS-B (CYYZ)
02:02PM 45.7602 -79.1067 203° Southwest 463 533 36,000  Level FlightAware ADS-B (CYYZ)
02:02PM 45.7011 -79.1419 203° Southwest 463 533 36,000  Level FlightAware ADS-B (CYYZ)
02:03PM 45.6442 -79.1757 203° Southwest 464 534 36,000  Level FlightAware ADS-B (CYYZ)
02:03PM 45.5854 -79.2106 203° Southwest 467 537 36,000  Level FlightAware ADS-B (CYYZ)
02:04PM 45.5240 -79.2469 203° Southwest 468 539 36,000  Level FlightAware ADS-B (CYYZ)
02:04PM 45.4621 -79.2834 202° Southwest 471 542 36,000  Level FlightAware ADS-B (CYYZ)
02:05PM 45.4013 -79.3193 202° Southwest 472 543 36,000  Level FlightAware ADS-B (CYYZ)
02:05PM 45.3417 -79.3542 202° Southwest 470 541 36,000  Level FlightAware ADS-B (CYYZ)
02:06PM 45.2803 -79.3901 202° Southwest 468 539 36,000  Level FlightAware ADS-B (CYYZ)
02:06PM 45.2225 -79.4239 202° Southwest 467 537 36,000  Level FlightAware ADS-B (CYYZ)
02:07PM 45.1689 -79.4551 202° Southwest 467 537 36,000  Level FlightAware ADS-B (CYYZ)
02:07PM 45.1023 -79.4939 202° Southwest 468 539 36,000  Level FlightAware ADS-B (CYYZ)
02:08PM 45.0413 -79.5294 202° Southwest 469 540 36,000  Level FlightAware ADS-B (CYYZ)
02:08PM 45.0247 -79.5390 202° Southwest 470 541 36,000  Level FlightAware ADS-B (CYOW)
02:08PM 44.9849 -79.5620 202° Southwest 470 541 36,000  Level FlightAware ADS-B (CYYZ)
02:08PM 44.9578 -79.5777 202° Southwest 470 541 36,000  Level FlightAware ADS-B (CYOW)
02:09PM 44.9210 -79.5990 202° Southwest 472 543 36,000  Level FlightAware ADS-B (CYYZ)
02:09PM 44.8609 -79.6336 202° Southwest 472 543 36,000  Level FlightAware ADS-B (CYYZ)
02:10PM 44.8077 -79.6641 202° Southwest 469 540 36,000  Level FlightAware ADS-B (CYYZ)
02:10PM 44.7758 -79.6824 202° Southwest 464 534 36,000  Level FlightAware ADS-B (CYYZ)
02:10PM 44.7347 -79.7060 202° Southwest 463 533 36,000  Level FlightAware ADS-B (EPWA / WAW)
02:10PM 44.7225 -79.7129 202° Southwest 464 534 36,000  Level FlightAware ADS-B (CYYZ)
02:11PM 44.6270 -79.7676 202° Southwest 462 532 36,000  Level FlightAware ADS-B (EPWA / WAW)
02:11PM 44.6033 -79.7821 203° Southwest 462 532 36,000  Level FlightAware ADS-B (CYYZ)
02:12PM 44.5498 -79.8208 207° Southwest 456 525 36,000  Level FlightAware ADS-B (EPWA / WAW)
02:12PM 44.5161 -79.8505 212° Southwest 454 522 36,000  Level FlightAware ADS-B (CYYZ)
02:12PM 44.4875 -79.8769 213° Southwest 452 520 36,000  Level FlightAware ADS-B (EPWA / WAW)
02:13PM 44.4611 -79.9014 214° Southwest 452 520 36,000  Level FlightAware ADS-B (CYYZ)
02:13PM 44.4084 -79.9499 213° Southwest 450 518 36,000  Level FlightAware ADS-B (CYYZ)
02:13PM 44.3843 -79.9716 213° Southwest 449 517 36,000  Level FlightAware ADS-B (EPWA / WAW)
02:14PM 44.3545 -79.9985 213° Southwest 451 519 36,000  Level FlightAware ADS-B (CYYZ)
02:14PM 44.3021 -80.0454 213° Southwest 447 514 36,000  Level FlightAware ADS-B (CYYZ)
02:14PM 44.2774 -80.0676 213° Southwest 447 514 36,000  Level FlightAware ADS-B (EPWA / WAW)
02:15PM 44.2495 -80.0924 213° Southwest 448 516 36,000  Level FlightAware ADS-B (CYYZ)
02:15PM 44.2217 -80.1172 213° Southwest 448 516 36,000  Level FlightAware ADS-B (EPWA / WAW)
02:15PM 44.1979 -80.1385 213° Southwest 449 517 36,000  Level FlightAware ADS-B (CYYZ)
02:16PM 44.1458 -80.1849 213° Southwest 450 518 36,000  Level FlightAware ADS-B (CYYZ)
02:16PM 44.0933 -80.2315 213° Southwest 449 517 36,000  Level FlightAware ADS-B (CYYZ)
02:16PM 44.0915 -80.2331 212° Southwest 448 516 36,000  Level FlightAware ADS-B (EPWA / WAW)
02:17PM 44.0420 -80.2771 213° Southwest 450 518 36,000  Level FlightAware ADS-B (CYYZ)
02:17PM 44.0315 -80.2863 212° Southwest 448 516 36,000  Level FlightAware ADS-B (EPWA / WAW)
02:17PM 43.9893 -80.3237 212° Southwest 451 519 36,000  Level FlightAware ADS-B (CYYZ)
02:17PM 43.9661 -80.3442 212° Southwest 451 519 36,000  Level FlightAware ADS-B (EPWA / WAW)
02:18PM 43.9354 -80.3713 212° Southwest 453 521 36,000  Level FlightAware ADS-B (CYYZ)
02:18PM 43.8952 -80.4067 212° Southwest 453 521 36,000  Level FlightAware ADS-B (EPWA / WAW)
02:18PM 43.8838 -80.4167 212° Southwest 454 522 36,000  Level FlightAware ADS-B (CYYZ)
02:19PM 43.8314 -80.4629 212° Southwest 454 522 36,000  Level FlightAware ADS-B (CYYZ)
02:19PM 43.8246 -80.4688 212° Southwest 454 522 36,000  Level FlightAware ADS-B (EPWA / WAW)
02:19PM 43.7887 -80.5003 212° Southwest 454 522 36,000  Level FlightAware ADS-B (CYYZ)
02:20PM 43.7387 -80.5439 212° Southwest 456 525 36,000  Level FlightAware ADS-B (CYYZ)
02:20PM 43.6479 -80.6083 207° Southwest 460 529 36,000  Level FlightAware ADS-B (CYYZ)
02:21PM 43.6007 -80.6414 207° Southwest 459 528 36,000  Level FlightAware ADS-B (CYYZ)
02:21PM 43.5677 -80.6646 207° Southwest 458 527 36,000  Level FlightAware ADS-B (EPWA / WAW)
02:21PM 43.5381 -80.6856 207° Southwest 456 525 36,000  Level FlightAware ADS-B (CYYZ)
02:22PM 43.4902 -80.7193 207° Southwest 456 525 36,000  Level FlightAware ADS-B (CYYZ)
02:22PM 43.5102 -80.7052 27° Northeast 455 524 36,000  Level FlightAware ADS-B
02:22PM 43.4215 -80.7676 207° Southwest 457 526 36,000  Level FlightAware ADS-B (CYYZ)
02:22PM 43.4310 -80.7608 27° Northeast 456 525 36,000  Level FlightAware ADS-B (EPWA / WAW)
02:23PM 43.3674 -80.8054 207° Southwest 458 527 36,000  Level FlightAware ADS-B (CYYZ)
02:23PM 43.3452 -80.8209 207° Southwest 458 527 36,000  Level FlightAware ADS-B (EPWA / WAW)
02:23PM 43.3110 -80.8449 207° Southwest 460 529 36,000  Level FlightAware ADS-B (CYYZ)
02:24PM 43.2774 -80.8683 207° Southwest 460 529 36,000  Level FlightAware ADS-B (EPWA / WAW)
02:24PM 43.2524 -80.8857 207° Southwest 462 532 36,000  Level FlightAware ADS-B (CYYZ)
02:24PM 43.2025 -80.9204 207° Southwest 462 532 36,000  Level FlightAware ADS-B (EPWA / WAW)
02:24PM 43.1952 -80.9256 207° Southwest 462 532 36,000  Level FlightAware ADS-B (CYYZ)
02:25PM 43.1417 -80.9627 207° Southwest 461 531 36,000  Level FlightAware ADS-B (EPWA / WAW)
02:25PM 43.1384 -80.9649 207° Southwest 462 532 36,000  Level FlightAware ADS-B (CYYZ)
02:25PM 43.0806 -81.0050 207° Southwest 460 529 36,000  Level FlightAware ADS-B (CYYZ)
02:25PM 43.0660 -81.0150 207° Southwest 458 527 36,000  Level FlightAware ADS-B (EPWA / WAW)
02:26PM 43.0238 -81.0443 207° Southwest 459 528 36,000  Level FlightAware ADS-B (CYYZ)
02:26PM 42.9670 -81.0834 207° Southwest 457 526 36,000  Level FlightAware ADS-B (CYYZ)
02:27PM 42.9116 -81.1216 207° Southwest 456 525 36,000  Level FlightAware ADS-B (CYYZ)
02:27PM 42.8794 -81.1439 207° Southwest 454 522 36,000  Level FlightAware ADS-B (EPWA / WAW)
02:27PM 42.8545 -81.1609 207° Southwest 454 522 36,000  Level FlightAware ADS-B (CYYZ)
02:28PM 42.8002 -81.1981 207° Southwest 453 521 36,000  Level FlightAware ADS-B (CYYZ)
02:28PM 42.7955 -81.2013 206° Southwest 452 520 36,000  Level FlightAware ADS-B (EPWA / WAW)
02:28PM 42.7425 -81.2375 207° Southwest 453 521 36,000  Level FlightAware ADS-B (CYYZ)
02:28PM 42.7353 -81.2424 207° Southwest 452 520 36,000  Level FlightAware ADS-B (EPWA / WAW)
02:29PM 42.6888 -81.2744 207° Southwest 453 521 36,000  Level FlightAware ADS-B (CYYZ)
02:29PM 42.6644 -81.2912 207° Southwest 453 521 36,000  Level FlightAware ADS-B (EPWA / WAW)
02:29PM 42.6311 -81.3139 207° Southwest 453 521 36,000  Level FlightAware ADS-B (CYYZ)
02:30PM 42.5745 -81.3524 207° Southwest 452 520 36,000  Level FlightAware ADS-B (CYYZ)
02:30PM 42.5205 -81.3891 207° Southwest 450 518 36,000  Level FlightAware ADS-B (CYYZ)
02:31PM 42.4639 -81.4273 207° Southwest 449 517 36,000  Level FlightAware ADS-B (CYYZ)
02:31PM 42.4075 -81.4655 207° Southwest 449 517 36,000  Level FlightAware ADS-B (CYYZ)
02:32PM 42.3522 -81.5029 207° Southwest 449 517 36,000  Level FlightAware ADS-B (CYYZ)
02:32PM 42.2976 -81.5397 207° Southwest 449 517 36,000  Level FlightAware ADS-B (CYYZ)
02:33PM 42.2410 -81.5778 206° Southwest 449 517 36,000  Level FlightAware ADS-B (CYYZ)
02:33PM 42.1857 -81.6148 206° Southwest 448 516 36,000  Level FlightAware ADS-B (CYYZ)
02:34PM 42.1296 -81.6525 206° Southwest 448 516 36,000  Level FlightAware ADS-B (CYYZ)
02:34PM 42.0756 -81.6886 206° Southwest 448 516 36,000  Level FlightAware ADS-B (CYYZ)
02:35PM 42.0195 -81.7260 206° Southwest 447 514 36,000  Level FlightAware ADS-B (CYYZ)
02:35PM 41.9637 -81.7631 206° Southwest 445 512 36,000  Level FlightAware ADS-B (CYYZ)
02:36PM 41.9081 -81.8001 206° Southwest 444 511 36,000  Level FlightAware ADS-B (CYYZ)
02:36PM 41.8554 -81.8351 206° Southwest 443 510 36,000  Level FlightAware ADS-B (CYYZ)
02:37PM 41.7988 -81.8726 206° Southwest 440 506 36,000  Level FlightAware ADS-B (CYYZ)
02:37PM 41.7445 -81.9086 206° Southwest 439 505 36,000  Level FlightAware ADS-B (CYYZ)
02:38PM 41.7023 -81.9364 206° Southwest 438 504 36,000  Level FlightAware ADS-B (CYYZ)
02:38PM 41.6362 -81.9799 206° Southwest 437 503 36,000  Level FlightAware ADS-B (CYYZ)
02:39PM 41.5806 -82.0165 206° Southwest 438 504 36,000  Level FlightAware ADS-B (CYYZ)
02:39PM 41.5300 -82.0497 206° Southwest 438 504 36,000  Level FlightAware ADS-B (CYYZ)
02:40PM 41.4792 -82.0829 206° Southwest 439 505 36,000  Level FlightAware ADS-B (CYYZ)
02:41PM 41.3801 -82.1464 206° Southwest 453 521 36,000  Level FlightAware ADS-B (CYYZ)
02:42PM 41.2866 -82.1853 197° South 452 520 36,000  Level FlightAware ADS-B (CYYZ)
02:43PM 41.1644 -82.2300 197° South 452 520 36,000  Level Cleveland Center
02:44PM 41.0428 -82.2750 196° South 452 520 36,000  Level Cleveland Center
02:45PM 40.9219 -82.3178 195° South 451 519 36,000  Level Cleveland Center
02:45PM 40.8403 -82.3467 195° South 452 520 36,000  Level Indianapolis Center
02:46PM 40.7186 -82.3897 195° South 452 520 36,000  Level Indianapolis Center
02:52PM 39.9555 -82.6015 195° South 474 545 36,000  Level FlightAware ADS-B (EGOD)
02:53PM 39.8785 -82.6070 183° South 474 545 36,000  Level FlightAware ADS-B (EGOD)
02:53PM 39.8257 -82.6105 183° South 473 544 36,000  Level FlightAware ADS-B (EGOD)
02:54PM 39.7051 -82.6186 183° South 474 545 36,000  Level FlightAware ADS-B
02:55PM 39.6439 -82.6228 183° South 475 547 36,000  Level FlightAware ADS-B
02:55PM 39.5464 -82.6294 183° South 475 547 36,000  Level FlightAware ADS-B
02:56PM 39.4774 -82.6339 183° South 472 543 36,000  Level FlightAware ADS-B
02:57PM 39.3842 -82.6402 183° South 470 541 36,000  Level FlightAware ADS-B
02:57PM 39.2959 -82.6461 183° South 470 541 36,000  Level FlightAware ADS-B
02:58PM 39.2094 -82.6519 183° South 470 541 36,000  Level FlightAware ADS-B
02:58PM 39.1482 -82.6559 183° South 472 543 36,000  Level FlightAware ADS-B
02:59PM 39.0728 -82.6512 177° South 493 567 36,000  Level FlightAware ADS-B
02:59PM 38.9987 -82.6404 174° South 495 570 36,000  Level FlightAware ADS-B
03:00PM 38.9308 -82.6304 173° South 494 568 36,000  Level FlightAware ADS-B
03:01PM 38.8591 -82.6197 173° South 493 567 36,000  Level FlightAware ADS-B
03:01PM 38.7905 -82.6095 173° South 493 567 36,000  Level FlightAware ADS-B
03:02PM 38.7219 -82.5994 173° South 493 567 36,000  Level FlightAware ADS-B
03:02PM 38.6869 -82.5944 174° South 494 568 36,000  Level FlightAware ADS-B
03:03PM 38.5639 -82.5775 174° South 491 565 36,000  Level Indianapolis Center
03:04PM 38.4361 -82.5989 187° South 460 529 36,000  Level Indianapolis Center
03:05PM 38.3117 -82.6264 190° South 459 528 36,000  Level Indianapolis Center
03:06PM 38.1842 -82.6539 190° South 459 528 36,000  Level Indianapolis Center
03:07PM 38.0356 -82.6869 190° South 460 529 36,000  Level Indianapolis Center
03:08PM 37.9081 -82.7122 189° South 461 531 36,000  Level Indianapolis Center
03:09PM 37.7808 -82.7394 190° South 461 531 36,000  Level Indianapolis Center
03:10PM 37.6561 -82.7736 192° South 461 531 36,000  Level Indianapolis Center
03:11PM 37.5492 -82.8369 205° Southwest 428 493 36,000  Level Indianapolis Center
03:12PM 37.4308 -82.9158 208° Southwest 415 478 36,000  Level Indianapolis Center
03:13PM 37.3281 -82.9822 207° Southwest 415 478 36,000  Level Indianapolis Center
03:14PM 37.2250 -83.0492 207° Southwest 416 479 36,000  Level Indianapolis Center
03:15PM 37.1231 -83.1150 207° Southwest 416 479 36,000  Level Indianapolis Center
03:16PM 37.0044 -83.1931 208° Southwest 416 479 36,000  Level Indianapolis Center
03:17PM 36.9014 -83.2594 207° Southwest 416 479 36,000  Level Indianapolis Center
03:18PM 36.7969 -83.3267 207° Southwest 419 482 36,000  Level Indianapolis Center
03:19PM 36.6914 -83.3950 207° Southwest 425 489 36,000  Level Indianapolis Center
03:20PM 36.5858 -83.4619 207° Southwest 425 489 36,000  Level Indianapolis Center
03:21PM 36.4617 -83.5417 207° Southwest 426 490 36,000  Level Indianapolis Center
03:22PM 36.3539 -83.6106 207° Southwest 430 495 36,000  Level Indianapolis Center
03:23PM 36.2461 -83.6792 207° Southwest 431 496 36,000  Level Indianapolis Center
03:25PM 36.1375 -83.7481 207° Southwest 433 498 36,000  Level Indianapolis Center
03:26PM 36.0281 -83.8156 207° Southwest 434 499 36,000  Level Indianapolis Center
03:32PM 35.2770 -84.0468 207° Southwest 446 513 36,000  Level FlightAware ADS-B (KDZJ)
03:32PM 35.1856 -84.0688 191° South 446 513 36,000  Level FlightAware ADS-B (KDZJ)
03:33PM 35.1086 -84.0873 191° South 447 514 36,000  Level FlightAware ADS-B (KDZJ)
03:34PM 35.0314 -84.1058 191° South 456 525 36,000  Level FlightAware ADS-B (KDZJ)
03:34PM 34.9489 -84.1255 191° South 457 526 36,000  Level FlightAware ADS-B (KDZJ)
03:35PM 34.8522 -84.1485 191° South 459 528 36,000  Level FlightAware ADS-B (KDZJ)
03:36PM 34.7805 -84.1655 191° South 458 527 36,000 -240 Level FlightAware ADS-B (KDZJ)
03:36PM 34.6854 -84.1880 191° South 455 524 35,700 -480 Descending FlightAware ADS-B (KDZJ)
03:37PM 34.6099 -84.2057 191° South 443 510 35,400 -480 Descending FlightAware ADS-B (KDZJ)
03:38PM 34.5244 -84.2260 191° South 442 509 35,100 -300 Descending FlightAware ADS-B (KDZJ)
03:38PM 34.4445 -84.2449 191° South 440 506 35,000 -120 Descending FlightAware ADS-B (KDZJ)
03:39PM 34.3626 -84.2642 191° South 440 506 35,000  Level FlightAware ADS-B (KDZJ)
03:40PM 34.2835 -84.2828 191° South 443 510 35,000  Level FlightAware ADS-B (KDZJ)
03:40PM 34.2013 -84.3020 191° South 444 511 35,000  Level FlightAware ADS-B (KDZJ)
03:41PM 34.1216 -84.3206 191° South 445 512 35,000  Level FlightAware ADS-B (KDZJ)
03:42PM 34.0422 -84.3392 191° South 445 512 35,000  Level FlightAware ADS-B (KDZJ)
03:43PM 33.8981 -84.3742 191° South 455 524 35,000  Level Atlanta Center
03:44PM 33.7792 -84.4011 191° South 449 517 35,000  Level Atlanta Center
03:45PM 33.6539 -84.4306 191° South 449 517 35,000  Level Atlanta Center
03:46PM 33.5181 -84.4375 182° South 449 517 35,000  Level Atlanta Center
03:47PM 33.3867 -84.4344 179° South 461 531 35,000  Level Atlanta Center
03:48PM 33.2614 -84.4314 179° South 461 531 35,000  Level Atlanta Center
03:49PM 33.1342 -84.4308 180° South 456 525 35,000  Level Atlanta Center
03:50PM 33.0067 -84.4303 180° South 456 525 35,000  Level Atlanta Center
03:51PM 32.8772 -84.4297 180° South 456 525 35,000  Level Atlanta Center
03:52PM 32.7667 -84.4217 176° South 456 525 35,000  Level Atlanta Center
03:53PM 32.6394 -84.4161 178° South 456 525 35,000  Level Atlanta Center
03:54PM 32.5100 -84.4133 179° South 461 531 35,000  Level Atlanta Center
03:55PM 32.3828 -84.4128 180° South 461 531 35,000  Level Atlanta Center
03:56PM 32.2533 -84.4097 179° South 461 531 35,000  Level Atlanta Center
03:59PM 31.8172 -84.3986 179° South 463 533 35,000  Level Jacksonville Center
04:00PM 31.6858 -84.3989 180° South 463 533 35,000  Level Jacksonville Center
04:06PM 30.9508 -84.3816 180° South 484 557 35,000  Level FlightAware ADS-B (KTLH)
04:06PM 30.8517 -84.3797 179° South 482 555 35,000  Level FlightAware ADS-B (KTLH)
04:07PM 30.7274 -84.3768 179° South 483 556 35,000  Level FlightAware ADS-B (KTLH)
04:08PM 30.6736 -84.3714 175° South 492 566 35,000  Level FlightAware ADS-B (KTLH)
04:08PM 30.5905 -84.3542 170° South 503 579 35,000  Level FlightAware ADS-B (KTLH)
04:09PM 30.5211 -84.3313 164° South 512 589 35,000  Level FlightAware ADS-B (KTLH)
04:09PM 30.4773 -84.3127 160° South 516 594 35,000  Level FlightAware ADS-B (KTLH)
04:10PM 30.3990 -84.2701 155° Southeast 521 600 35,000  Level FlightAware ADS-B (KTLH)
04:10PM 30.3334 -84.2274 151° Southeast 521 600 35,000  Level FlightAware ADS-B (KTLH)
04:11PM 30.2695 -84.1859 151° Southeast 519 597 35,000  Level FlightAware ADS-B (KTLH)
04:11PM 30.2212 -84.1546 151° Southeast 519 597 35,000  Level FlightAware ADS-B (KTLH)
04:12PM 30.1413 -84.1025 151° Southeast 520 598 35,000  Level FlightAware ADS-B (KTLH)
04:13PM 30.0616 -84.0507 151° Southeast 521 600 35,000  Level FlightAware ADS-B (KTLH)
04:13PM 29.9943 -84.0070 151° Southeast 522 601 35,000  Level FlightAware ADS-B (KTLH)
04:14PM 29.9142 -83.9550 151° Southeast 520 598 35,000  Level FlightAware ADS-B (KTLH)
04:15PM 29.7527 -83.8505 151° Southeast 519 597 35,000  Level FlightAware ADS-B (KTLH)
04:16PM 29.6122 -83.7644 151° Southeast 523 602 35,000  Level Jacksonville Center
04:17PM 29.4811 -83.6775 150° Southeast 529 609 35,000  Level Jacksonville Center
04:18PM 29.3336 -83.5811 150° Southeast 541 623 35,000  Level Jacksonville Center
04:19PM 29.1983 -83.4992 152° Southeast 541 623 35,000  Level Jacksonville Center
04:20PM 29.0672 -83.4128 150° Southeast 541 623 35,000  Level Jacksonville Center
04:25PM 28.3631 -82.9678 150° Southeast 544 626 35,000  Level FlightAware ADS-B (KMCO)
04:27PM 28.2027 -82.8677 151° Southeast 542 624 35,000  Level FlightAware ADS-B (KMCO)
04:29PM 27.9587 -82.7160 151° Southeast 543 625 35,000  Level FlightAware ADS-B (KMCO)
04:30PM 27.8259 -82.6310 150° Southeast 546 628 35,000  Level FlightAware ADS-B (KMCO)
04:30PM 27.7505 -82.5797 149° Southeast 547 629 35,000  Level FlightAware ADS-B (KMCO)
04:31PM 27.6812 -82.5332 149° Southeast 548 631 35,000  Level FlightAware ADS-B (KMCO)
04:31PM 27.5974 -82.4825 152° Southeast 546 628 35,000  Level FlightAware ADS-B (KMCO)
04:33PM 27.4269 -82.3732 150° Southeast 545 627 35,000  Level FlightAware ADS-B (KMCO)
04:33PM 27.3510 -82.3375 157° South 537 618 35,000  Level FlightAware ADS-B (KMCO)
04:34PM 27.2737 -82.3027 158° South 538 619 35,000  Level FlightAware ADS-B (KMCO)
04:35PM 27.0277 -82.1917 158° South 538 619 35,000  Level FlightAware ADS-B (KMCO)
04:38PM 26.6380 -82.0172 158° South 534 615 35,000  Level FlightAware ADS-B (KMCO)
04:39PM 26.5405 -81.9737 158° South 534 615 35,000  Level FlightAware ADS-B (KMCO)
04:40PM 26.4275 -81.9234 158° South 535 616 35,000  Level FlightAware ADS-B (KMCO)
04:41PM 26.3326 -81.8812 158° South 535 616 35,000  Level FlightAware ADS-B (KMCO)
04:41PM 26.2545 -81.8465 158° South 535 616 35,000  Level FlightAware ADS-B (KMCO)
04:42PM 26.1573 -81.8034 158° South 532 612 35,000  Level FlightAware ADS-B (KMCO)
04:42PM 26.1437 -81.7974 158° South 531 611 35,000  Level FlightAware ADS-B (KMCO)
04:44PM 25.6839 -81.5975 159° South 522 601 35,000  Level FlightAware ADS-B
04:45PM 25.5792 -81.5709 167° South 516 594 35,000  Level FlightAware ADS-B
04:46PM 25.5630 -81.5681 171° South 515 593 35,000  Level FlightAware ADS-B (KMCO)
04:48PM 25.3594 -81.5631 171° South 510 587 35,000 -300 Level Miami Center
04:49PM 25.2375 -81.5928 192° South 500 575 34,400 -780 Descending Miami Center
04:50PM 25.1089 -81.6269 194° South 500 575 33,500 -1,020 Descending Miami Center
04:51PM 24.9825 -81.6631 195° South 487 560 32,400 -1,140 Descending Miami Center
04:52PM 24.8497 -81.7014 195° South 460 529 31,300 -1,020 Descending Miami Center
04:53PM 24.7314 -81.7381 196° South 449 517 30,400 -4,680 Descending Miami Center
04:54PM 24.6150 -81.7881 201° Southwest 449 517 22,000 -1,020 Descending Miami Center
04:55PM 24.5125 -81.8525 210° Southwest 442 509 28,400 2,700 Climbing Miami Center
04:56PM 24.4475 -81.9253 226° Southwest 398 458 27,500 -960 Descending Miami Center
04:57PM 24.3819 -82.0092 229° Southwest 383 441 26,500 -1,020 Descending Miami Center
04:58PM 24.3183 -82.0978 232° Southwest 378 435 25,500 -1,020 Descending Miami Center
04:59PM 24.2528 -82.1839 230° Southwest 378 435 24,500 -1,020 Descending Miami Center
05:00PM 24.1889 -82.2697 231° Southwest 378 435 23,500 -1,020 Descending Miami Center
05:01PM 24.1233 -82.3533 229° Southwest 367 422 22,500 -780 Descending Miami Center
05:02PM 24.0528 -82.4503 231° Southwest 362 417 22,000 -540 Descending Miami Center
05:04PM 23.8499 -82.4952 173° South  Level FlightAware Approximate
05:11PM 22.9891 -82.4091 180° South  Level Estimated
05:12PM 22.9891 -82.4091 180° South  Level Estimated
05:13PM 22.9891 -82.4091 180° South  Level Estimated
05:14PM 22.9891 -82.4091 180° South  Level Estimated
05:15PM 22.9891 -82.4091 180° South  Level Estimated
05:16PM 22.9891 -82.4091 180° South  Level Estimated
05:17PM 22.9891 -82.4091 180° South  Level Estimated
05:18PM 22.9891 -82.4091 180° South  Level Estimated
05:19PM 22.9891 -82.4091 180° South  Level Estimated
05:20PM 22.9891 -82.4091 180° South  Level Estimated
05:21PM 22.9891 -82.4091 180° South  Level Estimated
05:22PM 22.9891 -82.4091 180° South  Level Estimated
05:23PM 22.9891 -82.4091 180° South  Level Estimated
05:24PM 22.9891 -82.4091 180° South  Level Estimated
05:25PM 22.9891 -82.4091 180° South  Level Estimated
05:26PM 22.9891 -82.4091 180° South  Level Estimated
05:27PM 22.9891 -82.4091 180° South  Level Estimated
05:28PM 22.9891 -82.4091 180° South  Level Estimated
05:29PM 22.9891 -82.4091 180° South  Level Estimated
05:30PM 22.9891 -82.4091 180° South  Level Estimated
05:31PM 22.9891 -82.4091 180° South  Level Estimated
05:32PM 22.9891 -82.4091 180° South  Level Estimated
05:33PM 22.9891 -82.4091 180° South  Level Estimated